createdAt,value
2018-03-16T00:00:28.353Z,99238.56
2018-03-16T00:02:54.830Z,99236.60
2018-03-16T00:05:21.279Z,99229.56
2018-03-16T00:07:47.829Z,99235.27
2018-03-16T00:10:14.288Z,99233.73
2018-03-16T00:12:40.732Z,99234.01
2018-03-16T00:15:07.117Z,99228.88
2018-03-16T00:17:33.526Z,99234.55
2018-03-16T00:19:59.946Z,99232.94
2018-03-16T00:22:37.369Z,99224.88
2018-03-16T00:25:03.873Z,99221.77
2018-03-16T00:27:30.242Z,99225.91
2018-03-16T00:29:56.918Z,99220.13
2018-03-16T00:32:23.380Z,99213.86
2018-03-16T00:34:49.965Z,99206.63
2018-03-16T00:37:16.354Z,99207.82
2018-03-16T00:39:42.754Z,99207.17
2018-03-16T00:42:09.211Z,99209.73
2018-03-16T00:44:35.688Z,99211.48
2018-03-16T00:47:02.066Z,99206.09
2018-03-16T00:49:28.452Z,99208.40
2018-03-16T00:51:54.878Z,99205.78
2018-03-16T00:54:21.285Z,99202.06
2018-03-16T00:56:47.646Z,99200.95
2018-03-16T00:59:14.078Z,99201.10
2018-03-16T01:01:40.477Z,99192.45
2018-03-16T01:04:07.050Z,99199.13
2018-03-16T01:06:33.530Z,99194.80
2018-03-16T01:08:59.921Z,99192.12
2018-03-16T01:11:26.311Z,99185.02
2018-03-16T01:13:52.704Z,99188.53
2018-03-16T01:16:19.109Z,99187.43
2018-03-16T01:18:45.486Z,99191.94
2018-03-16T01:21:11.897Z,99187.17
2018-03-16T01:23:38.285Z,99186.63
2018-03-16T01:26:04.714Z,99190.95
2018-03-16T01:28:31.106Z,99181.83
2018-03-16T01:30:57.490Z,99180.22
2018-03-16T01:33:23.937Z,99180.72
2018-03-16T01:35:50.349Z,99177.95
2018-03-16T01:38:16.784Z,99181.27
2018-03-16T01:40:43.209Z,99178.86
2018-03-16T01:43:09.570Z,99178.86
2018-03-16T01:45:35.974Z,99182.05
2018-03-16T01:48:02.405Z,99183.27
2018-03-16T01:50:28.818Z,99186.34
2018-03-16T01:53:02.336Z,99186.38
2018-03-16T01:55:28.774Z,99193.97
2018-03-16T01:57:55.186Z,99194.16
2018-03-16T02:00:21.541Z,99200.91
2018-03-16T02:02:47.922Z,99199.67
2018-03-16T02:05:14.350Z,99197.23
2018-03-16T02:07:40.690Z,99205.22
2018-03-16T02:10:07.079Z,99201.73
2018-03-16T02:12:33.493Z,99204.07
2018-03-16T02:14:59.830Z,99199.82
2018-03-16T02:17:26.267Z,99202.20
2018-03-16T02:19:52.634Z,99209.94
2018-03-16T02:22:19.238Z,99210.91
2018-03-16T02:24:45.593Z,99218.11
2018-03-16T02:27:11.987Z,99219.09
2018-03-16T02:29:38.364Z,99228.56
2018-03-16T02:32:04.771Z,99229.03
2018-03-16T02:34:31.326Z,99228.32
2018-03-16T02:36:57.703Z,99228.89
2018-03-16T02:39:24.056Z,99228.89
2018-03-16T02:41:50.469Z,99227.77
2018-03-16T02:44:16.990Z,99235.27
2018-03-16T02:46:43.411Z,99234.16
2018-03-16T02:49:09.894Z,99237.39
2018-03-16T02:51:36.234Z,99239.48
2018-03-16T02:54:02.639Z,99238.67
2018-03-16T02:56:29.007Z,99233.39
2018-03-16T02:58:55.361Z,99235.05
2018-03-16T03:01:21.746Z,99238.50
2018-03-16T03:03:48.103Z,99229.41
2018-03-16T03:06:14.457Z,99229.69
2018-03-16T03:08:40.890Z,99227.67
2018-03-16T03:11:07.258Z,99222.47
2018-03-16T03:13:33.646Z,99217.34
2018-03-16T03:16:00.060Z,99222.19
2018-03-16T03:18:26.545Z,99221.84
2018-03-16T03:20:52.986Z,99226.57
2018-03-16T03:23:19.377Z,99225.53
2018-03-16T03:25:45.879Z,99226.66
2018-03-16T03:28:12.266Z,99222.59
2018-03-16T03:30:38.634Z,99222.02
2018-03-16T03:33:05.059Z,99223.80
2018-03-16T03:35:31.468Z,99222.90
2018-03-16T03:37:57.945Z,99218.81
2018-03-16T03:40:24.385Z,99220.62
2018-03-16T03:42:50.950Z,99216.38
2018-03-16T03:45:17.302Z,99215.56
2018-03-16T03:47:43.678Z,99221.45
2018-03-16T03:50:10.067Z,99225.54
2018-03-16T03:52:36.418Z,99225.25
2018-03-16T03:55:02.840Z,99231.03
2018-03-16T03:57:29.194Z,99229.46
2018-03-16T03:59:55.597Z,99245.98
2018-03-16T04:02:22.010Z,99238.53
2018-03-16T04:04:48.373Z,99235.19
2018-03-16T04:07:14.762Z,99233.69
2018-03-16T04:09:41.154Z,99243.19
2018-03-16T04:12:07.505Z,99236.17
2018-03-16T04:14:33.857Z,99232.78
2018-03-16T04:17:00.263Z,99240.86
2018-03-16T04:19:26.597Z,99245.08
2018-03-16T04:21:53.178Z,99242.01
2018-03-16T04:24:19.590Z,99246.53
2018-03-16T04:26:45.950Z,99244.47
2018-03-16T04:29:12.306Z,99244.50
2018-03-16T04:31:38.655Z,99244.55
2018-03-16T04:34:05.002Z,99247.33
2018-03-16T04:36:31.381Z,99237.97
2018-03-16T04:38:57.741Z,99235.80
2018-03-16T04:41:24.223Z,99247.05
2018-03-16T04:43:50.586Z,99248.34
2018-03-16T04:46:16.933Z,99249.41
2018-03-16T04:48:43.309Z,99242.11
2018-03-16T04:51:12.826Z,99242.84
2018-03-16T04:53:39.173Z,99239.33
2018-03-16T04:56:05.542Z,99236.98
2018-03-16T04:58:31.930Z,99230.17
2018-03-16T05:00:58.334Z,99232.81
2018-03-16T05:03:24.790Z,99230.11
2018-03-16T05:05:51.298Z,99229.75
2018-03-16T05:08:17.735Z,99238.91
2018-03-16T05:10:44.084Z,99235.52
2018-03-16T05:13:10.502Z,99239.57
2018-03-16T05:15:36.904Z,99240.39
2018-03-16T05:18:03.306Z,99239.42
2018-03-16T05:20:29.683Z,99228.11
2018-03-16T05:22:56.150Z,99232.53
2018-03-16T05:25:22.537Z,99230.45
2018-03-16T05:27:48.917Z,99241.17
2018-03-16T05:30:15.321Z,99252.86
2018-03-16T05:32:41.702Z,99248.19
2018-03-16T05:35:08.058Z,99251.70
2018-03-16T05:37:34.409Z,99250.06
2018-03-16T05:40:00.762Z,99249.07
2018-03-16T05:42:27.109Z,99246.25
2018-03-16T05:44:53.498Z,99252.59
2018-03-16T05:47:19.870Z,99256.20
2018-03-16T05:49:46.246Z,99247.11
2018-03-16T05:52:12.657Z,99247.52
2018-03-16T05:54:39.057Z,99254.44
2018-03-16T05:57:05.468Z,99248.89
2018-03-16T05:59:31.819Z,99250.44
2018-03-16T06:01:58.182Z,99249.05
2018-03-16T06:04:24.582Z,99248.60
2018-03-16T06:06:50.974Z,99248.69
2018-03-16T06:09:17.478Z,99248.00
2018-03-16T06:11:44.009Z,99249.86
2018-03-16T06:14:10.374Z,99255.18
2018-03-16T06:16:36.754Z,99258.05
2018-03-16T06:19:03.141Z,99257.83
2018-03-16T06:21:29.513Z,99252.48
2018-03-16T06:23:56.090Z,99254.45
2018-03-16T06:26:22.767Z,99253.70
2018-03-16T06:28:49.566Z,99255.58
2018-03-16T06:31:15.985Z,99258.46
2018-03-16T06:33:42.457Z,99266.92
2018-03-16T06:36:09.051Z,99261.04
2018-03-16T06:38:35.534Z,99259.06
2018-03-16T06:41:02.026Z,99262.23
2018-03-16T06:43:28.393Z,99259.19
2018-03-16T06:45:54.726Z,99256.33
2018-03-16T06:48:21.161Z,99261.35
2018-03-16T06:50:47.718Z,99262.67
2018-03-16T06:53:14.062Z,99252.14
2018-03-16T06:55:40.469Z,99252.64
2018-03-16T06:58:06.814Z,99246.57
2018-03-16T07:00:33.425Z,99250.26
2018-03-16T07:02:59.837Z,99248.56
2018-03-16T07:05:26.273Z,99248.72
2018-03-16T07:07:52.685Z,99243.07
2018-03-16T07:10:19.058Z,99247.08
2018-03-16T07:12:45.477Z,99238.41
2018-03-16T07:15:24.159Z,99233.91
2018-03-16T07:17:50.568Z,99230.20
2018-03-16T07:20:16.977Z,99221.80
2018-03-16T07:22:43.414Z,99223.93
2018-03-16T07:25:09.890Z,99222.16
2018-03-16T07:27:36.262Z,99226.51
2018-03-16T07:30:02.735Z,99225.75
2018-03-16T07:32:29.145Z,99231.47
2018-03-16T07:34:55.485Z,99228.30
2018-03-16T07:37:21.856Z,99228.19
2018-03-16T07:39:48.326Z,99225.55
2018-03-16T07:42:14.702Z,99220.00
2018-03-16T07:44:41.110Z,99224.06
2018-03-16T07:47:07.502Z,99227.91
2018-03-16T07:49:34.005Z,99219.41
2018-03-16T07:52:00.380Z,99218.48
2018-03-16T07:54:26.783Z,99211.80
2018-03-16T07:56:53.205Z,99208.20
2018-03-16T07:59:19.550Z,99210.26
2018-03-16T08:01:45.914Z,99212.48
2018-03-16T08:04:12.302Z,99211.11
2018-03-16T08:06:38.801Z,99212.31
2018-03-16T08:09:05.487Z,99213.55
2018-03-16T08:11:32.138Z,99213.59
2018-03-16T08:13:58.662Z,99202.23
2018-03-16T08:16:25.067Z,99209.28
2018-03-16T08:18:51.522Z,99207.02
2018-03-16T08:21:17.921Z,99204.62
2018-03-16T08:23:44.326Z,99196.69
2018-03-16T08:26:10.769Z,99199.25
2018-03-16T08:28:37.149Z,99199.13
2018-03-16T08:31:03.546Z,99200.83
2018-03-16T08:33:29.938Z,99202.41
2018-03-16T08:35:56.271Z,99200.10
2018-03-16T08:38:22.755Z,99195.06
2018-03-16T08:40:49.201Z,99193.82
2018-03-16T08:43:15.578Z,99186.05
2018-03-16T08:45:41.934Z,99194.97
2018-03-16T08:48:08.401Z,99199.94
2018-03-16T08:50:34.810Z,99202.28
2018-03-16T08:53:01.410Z,99197.20
2018-03-16T08:55:27.810Z,99209.02
2018-03-16T08:57:54.175Z,99215.60
2018-03-16T09:00:20.579Z,99209.28
2018-03-16T09:02:47.026Z,99199.55
2018-03-16T09:05:13.469Z,99205.18
2018-03-16T09:07:39.838Z,99203.18
2018-03-16T09:10:06.274Z,99204.86
2018-03-16T09:12:32.790Z,99203.61
2018-03-16T09:14:59.142Z,99202.06
2018-03-16T09:17:25.575Z,99209.41
2018-03-16T09:19:52.223Z,99201.78
2018-03-16T09:22:18.775Z,99206.38
2018-03-16T09:24:45.159Z,99204.02
2018-03-16T09:27:11.609Z,99196.45
2018-03-16T09:29:38.135Z,99200.19
2018-03-16T09:32:04.561Z,99205.30
2018-03-16T09:34:30.894Z,99195.34
2018-03-16T09:36:57.358Z,99188.55
2018-03-16T09:39:23.746Z,99194.11
2018-03-16T09:41:50.175Z,99177.92
2018-03-16T09:44:16.550Z,99179.02
2018-03-16T09:46:42.976Z,99164.77
2018-03-16T09:49:09.523Z,99173.91
2018-03-16T09:51:35.925Z,99179.97
2018-03-16T09:54:02.292Z,99168.80
2018-03-16T09:56:28.706Z,99158.62
2018-03-16T09:58:55.181Z,99152.26
2018-03-16T10:01:21.581Z,99145.18
2018-03-16T10:03:48.006Z,99144.88
2018-03-16T10:06:14.438Z,99147.33
2018-03-16T10:08:40.851Z,99149.97
2018-03-16T10:11:07.280Z,99140.45
2018-03-16T10:13:33.646Z,99138.53
2018-03-16T10:16:00.022Z,99143.77
2018-03-16T10:18:26.389Z,99143.19
2018-03-16T10:20:52.820Z,99131.97
2018-03-16T10:23:19.225Z,99121.44
2018-03-16T10:25:45.618Z,99114.80
2018-03-16T10:28:12.372Z,99115.14
2018-03-16T10:30:38.782Z,99112.17
2018-03-16T10:33:05.175Z,99110.77
2018-03-16T10:35:31.708Z,99098.39
2018-03-16T10:37:58.114Z,99096.66
2018-03-16T10:40:24.497Z,99093.78
2018-03-16T10:42:50.869Z,99086.11
2018-03-16T10:45:17.311Z,99086.37
2018-03-16T10:47:43.822Z,99084.80
2018-03-16T10:50:10.434Z,99079.73
2018-03-16T10:52:36.913Z,99082.48
2018-03-16T10:55:03.402Z,99083.47
2018-03-16T10:57:29.830Z,99087.50
2018-03-16T10:59:56.301Z,99086.05
2018-03-16T11:02:22.707Z,99086.23
2018-03-16T11:04:55.162Z,99081.19
2018-03-16T11:07:21.561Z,99076.60
2018-03-16T11:09:48.004Z,99073.56
2018-03-16T11:12:14.389Z,99076.14
2018-03-16T11:14:40.770Z,99078.59
2018-03-16T11:17:07.329Z,99078.59
2018-03-16T11:19:33.832Z,99081.15
2018-03-16T11:22:00.194Z,99066.84
2018-03-16T11:24:26.587Z,99061.14
2018-03-16T11:26:52.998Z,99053.77
2018-03-16T11:29:19.442Z,99052.88
2018-03-16T11:31:45.950Z,99049.33
2018-03-16T11:34:12.358Z,99050.23
2018-03-16T11:36:38.706Z,99040.70
2018-03-16T11:39:05.141Z,99039.41
2018-03-16T11:41:31.599Z,99038.66
2018-03-16T11:43:57.991Z,99036.66
2018-03-16T11:46:24.437Z,99027.42
2018-03-16T11:48:50.941Z,99021.16
2018-03-16T11:51:17.533Z,99025.64
2018-03-16T11:53:43.992Z,99015.45
2018-03-16T11:56:10.425Z,99012.75
2018-03-16T11:58:36.810Z,99009.31
2018-03-16T12:01:03.291Z,99004.58
2018-03-16T12:03:29.709Z,99008.47
2018-03-16T12:05:56.108Z,99008.59
2018-03-16T12:08:22.492Z,99012.65
2018-03-16T12:10:48.883Z,99010.34
2018-03-16T12:13:15.298Z,99011.97
2018-03-16T12:15:41.700Z,98997.45
2018-03-16T12:18:08.131Z,98993.83
2018-03-16T12:20:34.689Z,98982.94
2018-03-16T12:23:01.089Z,98972.55
2018-03-16T12:25:27.566Z,98968.58
2018-03-16T12:27:54.038Z,98965.75
2018-03-16T12:30:20.421Z,98968.55
2018-03-16T12:32:46.861Z,98964.00
2018-03-16T12:35:13.335Z,98965.91
2018-03-16T12:37:39.710Z,98962.65
2018-03-16T12:40:06.186Z,98956.01
2018-03-16T12:42:32.639Z,98952.16
2018-03-16T12:44:59.072Z,98954.20
2018-03-16T12:47:25.506Z,98952.70
2018-03-16T12:49:51.890Z,98945.39
2018-03-16T12:52:18.278Z,98944.55
2018-03-16T12:54:44.688Z,98943.42
2018-03-16T12:57:11.218Z,98932.37
2018-03-16T12:59:37.688Z,98920.13
2018-03-16T13:02:04.166Z,98911.87
2018-03-16T13:04:30.659Z,98921.33
2018-03-16T13:06:57.134Z,98921.11
2018-03-16T13:09:23.529Z,98915.94
2018-03-16T13:11:49.998Z,98920.71
2018-03-16T13:14:16.397Z,98909.36
2018-03-16T13:16:42.774Z,98903.36
2018-03-16T13:19:09.207Z,98904.96
2018-03-16T13:21:35.617Z,98904.70
2018-03-16T13:24:02.070Z,98903.42
2018-03-16T13:26:28.519Z,98899.19
2018-03-16T13:28:54.917Z,98901.37
2018-03-16T13:31:21.339Z,98908.83
2018-03-16T13:33:48.230Z,98893.26
2018-03-16T13:36:14.850Z,98888.94
2018-03-16T13:38:41.296Z,98883.44
2018-03-16T13:41:07.756Z,98879.59
2018-03-16T13:43:34.130Z,98878.53
2018-03-16T13:46:00.659Z,98878.83
2018-03-16T13:48:27.089Z,98877.08
2018-03-16T13:50:53.466Z,98870.98
2018-03-16T13:53:19.886Z,98877.32
2018-03-16T13:55:46.276Z,98872.39
2018-03-16T13:58:12.661Z,98866.06
2018-03-16T14:00:39.125Z,98870.22
2018-03-16T14:03:05.518Z,98866.88
2018-03-16T14:05:31.888Z,98862.14
2018-03-16T14:07:58.302Z,98856.27
2018-03-16T14:10:24.798Z,98856.85
2018-03-16T14:12:51.285Z,98855.16
2018-03-16T14:15:17.782Z,98850.66
2018-03-16T14:17:44.996Z,98848.44
2018-03-16T14:20:11.366Z,98842.51
2018-03-16T14:22:38.071Z,98841.00
2018-03-16T14:25:04.551Z,98840.95
2018-03-16T14:27:30.969Z,98841.31
2018-03-16T14:29:57.465Z,98846.59
2018-03-16T14:32:23.881Z,98845.77
2018-03-16T14:34:50.578Z,98844.43
2018-03-16T14:37:17.010Z,98838.75
2018-03-16T14:39:43.350Z,98833.59
2018-03-16T14:42:09.727Z,98831.64
2018-03-16T14:44:36.208Z,98829.92
2018-03-16T14:47:02.634Z,98832.30
2018-03-16T14:49:29.143Z,98838.12
2018-03-16T14:51:55.563Z,98838.45
2018-03-16T14:54:21.969Z,98834.02
2018-03-16T14:56:48.404Z,98840.00
2018-03-16T14:59:14.830Z,98840.96
2018-03-16T15:01:41.278Z,98846.44
2018-03-16T15:04:07.869Z,98842.91
2018-03-16T15:06:34.362Z,98834.86
2018-03-16T15:09:00.815Z,98838.94
2018-03-16T15:11:27.182Z,98837.84
2018-03-16T15:13:53.644Z,98826.52
2018-03-16T15:16:19.986Z,98827.44
2018-03-16T15:18:46.353Z,98825.59
2018-03-16T15:21:12.722Z,98840.43
2018-03-16T15:23:39.135Z,98837.13
2018-03-16T15:26:05.574Z,98828.34
2018-03-16T15:28:32.281Z,98822.89
2018-03-16T15:30:58.710Z,98819.23
2018-03-16T15:33:25.259Z,98833.55
2018-03-16T15:35:51.890Z,98843.37
2018-03-16T15:38:18.325Z,98838.86
2018-03-16T15:40:44.703Z,98836.95
2018-03-16T15:43:11.189Z,98827.66
2018-03-16T15:45:37.611Z,98836.96
2018-03-16T15:48:04.084Z,98844.48
2018-03-16T15:50:30.522Z,98844.20
2018-03-16T15:52:58.243Z,98846.40
2018-03-16T15:55:24.687Z,98847.67
2018-03-16T15:57:51.054Z,98852.39
2018-03-16T16:00:17.437Z,98849.57
2018-03-16T16:02:43.795Z,98839.06
2018-03-16T16:05:10.138Z,98841.07
2018-03-16T16:07:36.574Z,98842.30
2018-03-16T16:10:03.043Z,98842.23
2018-03-16T16:12:29.439Z,98846.41
2018-03-16T16:14:55.847Z,98847.66
2018-03-16T16:17:22.210Z,98845.58
2018-03-16T16:19:48.634Z,98836.37
2018-03-16T16:22:15.158Z,98839.42
2018-03-16T16:24:41.619Z,98854.20
2018-03-16T16:27:08.079Z,98847.43
2018-03-16T16:29:34.526Z,98842.27
2018-03-16T16:32:00.937Z,98843.94
2018-03-16T16:34:27.323Z,98849.52
2018-03-16T16:36:53.781Z,98845.13
2018-03-16T16:39:20.234Z,98848.39
2018-03-16T16:41:46.793Z,98851.95
2018-03-16T16:44:13.315Z,98850.45
2018-03-16T16:46:39.771Z,98840.61
2018-03-16T16:49:06.211Z,98834.36
2018-03-16T16:51:32.698Z,98846.56
2018-03-16T16:53:59.097Z,98845.11
2018-03-16T16:56:25.458Z,98847.12
2018-03-16T16:58:51.995Z,98857.84
2018-03-16T17:01:18.329Z,98849.16
2018-03-16T17:03:44.729Z,98851.13
2018-03-16T17:06:11.185Z,98843.47
2018-03-16T17:08:37.741Z,98841.09
2018-03-16T17:11:04.216Z,98845.29
2018-03-16T17:13:30.570Z,98840.59
2018-03-16T17:15:56.970Z,98839.88
2018-03-16T17:18:23.366Z,98842.97
2018-03-16T17:20:49.734Z,98856.89
2018-03-16T17:23:16.169Z,98859.22
2018-03-16T17:25:42.672Z,98854.07
2018-03-16T17:28:09.067Z,98854.72
2018-03-16T17:30:35.522Z,98859.31
2018-03-16T17:33:01.934Z,98859.56
2018-03-16T17:35:28.338Z,98856.70
2018-03-16T17:37:54.774Z,98864.70
2018-03-16T17:40:21.174Z,98852.05
2018-03-16T17:42:47.562Z,98860.39
2018-03-16T17:45:14.090Z,98858.45
2018-03-16T17:47:40.453Z,98864.84
2018-03-16T17:50:06.885Z,98876.94
2018-03-16T17:52:33.273Z,98875.20
2018-03-16T17:54:59.676Z,98861.20
2018-03-16T17:57:26.112Z,98857.30
2018-03-16T17:59:53.074Z,98870.70
2018-03-16T18:02:19.531Z,98865.59
2018-03-16T18:04:46.907Z,98855.46
2018-03-16T18:07:13.945Z,98860.94
2018-03-16T18:09:40.389Z,98871.86
2018-03-16T18:12:06.786Z,98855.31
2018-03-16T18:14:33.211Z,98854.59
2018-03-16T18:16:59.693Z,98863.72
2018-03-16T18:19:26.429Z,98875.72
2018-03-16T18:21:52.818Z,98871.75
2018-03-16T18:24:19.254Z,98863.17
2018-03-16T18:26:45.665Z,98866.97
2018-03-16T18:29:12.370Z,98877.20
2018-03-16T18:31:38.935Z,98885.61
2018-03-16T18:34:05.333Z,98883.58
2018-03-16T18:36:31.762Z,98885.23
2018-03-16T18:38:58.166Z,98889.50
2018-03-16T18:41:24.572Z,98890.22
2018-03-16T18:43:50.986Z,98893.14
2018-03-16T18:46:17.358Z,98886.59
2018-03-16T18:48:43.897Z,98885.75
2018-03-16T18:51:10.286Z,98894.94
2018-03-16T18:53:36.711Z,98897.97
2018-03-16T18:56:03.129Z,98892.57
2018-03-16T18:58:29.582Z,98891.22
2018-03-16T19:00:56.026Z,98894.94
2018-03-16T19:03:22.471Z,98902.23
2018-03-16T19:05:48.915Z,98897.66
2018-03-16T19:08:15.294Z,98895.41
2018-03-16T19:10:41.675Z,98897.02
2018-03-16T19:13:08.149Z,98898.22
2018-03-16T19:15:34.594Z,98893.34
2018-03-16T19:18:00.986Z,98902.13
2018-03-16T19:20:27.559Z,98898.50
2018-03-16T19:22:54.000Z,98894.91
2018-03-16T19:25:20.628Z,98899.16
2018-03-16T19:27:47.260Z,98897.88
2018-03-16T19:30:13.673Z,98903.72
2018-03-16T19:32:40.099Z,98906.59
2018-03-16T19:35:06.550Z,98907.72
2018-03-16T19:50:38.674Z,98904.64
2018-03-16T19:53:05.009Z,98913.44
2018-03-16T19:55:31.421Z,98904.02
2018-03-16T19:57:57.890Z,98899.52
2018-03-16T20:00:24.329Z,98899.99
2018-03-16T20:02:50.792Z,98895.28
2018-03-16T20:05:17.162Z,98893.00
2018-03-16T20:07:43.628Z,98892.05
2018-03-16T20:10:10.046Z,98894.32
2018-03-16T20:12:36.489Z,98892.55
2018-03-16T20:15:02.926Z,98890.91
2018-03-16T20:17:29.386Z,98889.05
2018-03-16T20:19:55.790Z,98896.44
2018-03-16T20:22:29.176Z,98901.45
2018-03-16T20:24:55.857Z,98904.33
2018-03-16T20:27:22.247Z,98891.47
2018-03-16T20:29:48.697Z,98901.34
2018-03-16T20:32:15.125Z,98897.72
2018-03-16T20:34:41.525Z,98884.05
2018-03-16T20:37:07.994Z,98887.20
2018-03-16T20:39:34.437Z,98884.39
2018-03-16T20:42:00.841Z,98875.28
2018-03-16T20:44:28.189Z,98878.91
2018-03-16T20:46:54.719Z,98867.05
2018-03-16T20:49:21.162Z,98861.68
2018-03-16T20:51:47.597Z,98867.64
2018-03-16T20:54:14.003Z,98867.88
2018-03-16T20:56:40.386Z,98863.38
2018-03-16T20:59:06.818Z,98859.71
2018-03-16T21:01:33.229Z,98857.02
2018-03-16T21:03:59.645Z,98861.51
2018-03-16T21:06:25.991Z,98860.98
2018-03-16T21:08:52.391Z,98866.69
2018-03-16T21:11:18.802Z,98855.39
2018-03-16T21:13:45.301Z,98853.04
2018-03-16T21:16:11.722Z,98860.45
2018-03-16T21:18:38.410Z,98860.31
2018-03-16T21:21:04.810Z,98862.24
2018-03-16T21:23:31.276Z,98858.56
2018-03-16T21:25:57.666Z,98861.34
2018-03-16T21:28:24.083Z,98861.66
2018-03-16T21:30:50.546Z,98873.84
2018-03-16T21:33:16.973Z,98879.80
2018-03-16T21:35:43.554Z,98883.95
2018-03-16T21:38:09.955Z,98880.89
2018-03-16T21:40:36.315Z,98880.17
2018-03-16T21:43:02.806Z,98883.16
2018-03-16T21:45:29.222Z,98884.98
2018-03-16T21:47:55.708Z,98881.37
2018-03-16T21:50:22.542Z,98884.97
2018-03-16T21:52:48.929Z,98884.48
2018-03-16T21:55:15.284Z,98884.44
2018-03-16T21:57:41.774Z,98880.20
2018-03-16T22:00:09.942Z,98882.80
2018-03-16T22:02:38.118Z,98894.09
2018-03-16T22:05:05.825Z,98893.67
2018-03-16T22:07:32.182Z,98893.16
2018-03-16T22:09:59.194Z,98893.54
2018-03-16T22:12:25.591Z,98898.41
2018-03-16T22:14:51.954Z,98886.98
2018-03-16T22:17:18.378Z,98893.45
2018-03-16T22:19:44.806Z,98889.06
2018-03-16T22:22:11.318Z,98894.60
2018-03-16T22:24:37.675Z,98893.64
2018-03-16T22:27:04.034Z,98897.38
2018-03-16T22:29:30.437Z,98891.22
2018-03-16T22:31:56.796Z,98897.80
2018-03-16T22:34:23.253Z,98887.22
2018-03-16T22:36:49.841Z,98881.09
2018-03-16T22:39:16.222Z,98876.95
2018-03-16T22:41:42.630Z,98882.88
2018-03-16T22:44:09.048Z,98889.84
2018-03-16T22:46:35.443Z,98893.19
2018-03-16T22:49:01.894Z,98891.72
2018-03-16T22:51:28.266Z,98880.13
2018-03-16T22:53:54.686Z,98872.56
2018-03-16T22:56:21.238Z,98861.60
2018-03-16T22:58:47.859Z,98856.66
2018-03-16T23:01:14.225Z,98848.34
2018-03-16T23:03:40.678Z,98843.58
2018-03-16T23:06:07.045Z,98852.43
2018-03-16T23:08:33.422Z,98861.31
2018-03-16T23:10:59.859Z,98858.69
2018-03-16T23:13:26.223Z,98869.48
2018-03-16T23:15:52.721Z,98856.97
2018-03-16T23:18:19.214Z,98859.31
2018-03-16T23:20:45.586Z,98863.06
2018-03-16T23:23:11.933Z,98860.25
2018-03-16T23:25:38.409Z,98871.45
2018-03-16T23:28:04.989Z,98876.68
2018-03-16T23:30:31.418Z,98883.50
2018-03-16T23:32:57.801Z,98889.04
2018-03-16T23:35:24.217Z,98893.38
2018-03-16T23:37:50.682Z,98898.71
2018-03-16T23:40:17.098Z,98903.73
2018-03-16T23:42:43.567Z,98900.23
2018-03-16T23:45:10.045Z,98898.48
2018-03-16T23:47:36.454Z,98904.37
2018-03-16T23:50:02.924Z,98901.98
2018-03-16T23:52:29.318Z,98893.38
2018-03-16T23:54:55.733Z,98884.31
2018-03-16T23:57:22.154Z,98874.69
2018-03-16T23:59:48.547Z,98853.22
